Tuesday, July 22, 2014
23:32 UTC
  |  Log In   |  Register Free
Airport Search:

Alpena County Regional Airport
(KAPN)

Alpena County Regional Airport Diagram
No Airport Diagram Available

FAA data valid effective May 29, 2014 until July 24, 2014 (unless otherwise noted).

 
 
 
 
 
 
 
 
 
 
 
 
 
 

Current Aviation Weather for Alpena County Regional Airport (KAPN)

The most recent METAR observation for KAPN was updated at: 2154 UTC
METAR Summary (Translated METAR)
KAPN
222154Z AUTO VRB06KT 10SM OVC045 29/19 A2984 RMK AO2 SLP101 T02890194
KPZQ
(22.4 nm NW from KAPN)
222235Z AUTO 24010G15KT 10SM SCT060 28/23 A2984 RMK AO2 T02770230
TAF Summary (Translated TAF)
KAPN
221726Z 2218/2318 18011G19KT P6SM SCT060 BKN180 FM222200 20009KT P6SM VCTS BKN050CB FM230200 29009G18KT P6SM SCT030 FM230500 30010G19KT P6SM OVC030 FM231300 35009G15KT P6SM SCT050
  Airport Weather Conditions for KAPN

 Current Weather at APN
84° F
Mostly Cloudy
Southwest winds at 9.2 mph
APN NOAA Radar

Pressure: 29.84 in
Humidity: 59%
Wind: Southwest at 9.2 MPH (8 KT)
Dew Point: 68.0°F
Visibility: 10.00 mi


Airport Weather Forecast for KAPN

Translated METAR and TAF for KAPN
Translated METAR for KAPN (2326 UTC 22 July 2014)
found at http://aviationweather.gov/adds/metars/
 
METAR text: KAPN 222254Z AUTO 22008KT 10SM BKN041 BKN050 29/20 A2984 RMK AO2 SLP102 T02890200
Conditions at: KAPN (ALPENA , MI, US) observed 2254 UTC 22 July 2014
Temperature: 28.9°C (84°F)
Dewpoint: 20.0°C (68°F) [RH = 59%]
Pressure (altimeter): 29.84 inches Hg (1010.6 mb)
[Sea-level pressure: 1010.2 mb]
Winds: from the SW (220 degrees) at 9 MPH (8 knots; 4.2 m/s)
Visibility: 10 or more miles (16+ km)
Ceiling: 4100 feet AGL
Clouds: broken clouds at 4100 feet AGL
broken clouds at 5000 feet AGL
Weather: automated observation with no human augmentation;
there may or may not be significant weather present at this time
Translated TAF for KAPN
Forecast for: KAPN (ALPENA , MI, US)
TAF Text: KAPN 222320Z 2300/2324 23008KT P6SM BKN040
Forecast period: 0000 to 0400 UTC 23 July 2014
Forecast type: FROM: standard forecast or significant change
Winds: from the SW (230 degrees) at 9 MPH (8 knots; 4.2 m/s)
Visibility: 6 or more miles (10+ km)
Ceiling: 4000 feet AGL
Clouds: broken clouds at 4000 feet AGL
Weather: no significant weather forecast for this period
TAF Text: FM230400 30010G18KT P6SM OVC025
Forecast period: 0400 to 1600 UTC 23 July 2014
Forecast type: FROM: standard forecast or significant change
Winds: from the WNW (300 degrees) at 12 MPH (10 knots; 5.2 m/s)
gusting to 21 MPH (18 knots; 9.4 m/s)
Visibility: 6 or more miles (10+ km)
Ceiling: 2500 feet AGL
Clouds: overcast cloud deck at 2500 feet AGL
Weather: no significant weather forecast for this period
TAF Text: FM231600 35012G21KT P6SM SCT040
Forecast period: 1600 UTC 23 July 2014 to 0000 UTC 24 July 2014
Forecast type: FROM: standard forecast or significant change
Winds: from the N (350 degrees) at 14 MPH (12 knots; 6.2 m/s)
gusting to 24 MPH (21 knots; 10.9 m/s)
Visibility: 6 or more miles (10+ km)
Clouds: scattered clouds at 4000 feet AGL
Weather: no significant weather forecast for this period

Find All Airport Services Find A Hotel Find A Rental Car Find A Golf Course Find A Restaurant $100 Hamburger



FBO's on the Field
FBO Company Facility Photos Services Transportation Aviation Fuel Prices: Prices include tax
Catering Weather Repair Courtesy Rental Type 100LL JetA JetA+ MOGAS 8087
 
Aviation Express Inc.

This FBO has not yet been rated
FS:Shell
Last Updated: Jul-02
Login to update fuel prices
SS:
Contact Aviation Express Inc.More FBO Information
 
Aviation North

This FBO has not yet been rated
FS:Avfuel
Last Updated: Jun-30
Login to update fuel prices
SS:
Contact Aviation NorthMore FBO Information
 
Add another FBO Facility Photos Catering Weather Repair Courtesy Rental Type 100LL JetA JetA+ MOGAS 8087
Services Transportation Aviation Fuel Prices: Prices include tax


GlobalAir.com Airport Resource Center model-print
model-print
model-print
model-print